Time;durP1;ratioP1;P1;durP2;ratioP2;P2;SDS_P1;SDS_P2;PMS_P1;PMS_P2;Temp;Humidity;BMP_temperature;BMP_pressure;BME280_temperature;BME280_humidity;BME280_pressure;Samples;Min_cycle;Max_cycle;Signal;HPM_P1;HPM_P2
2022/10/31 00:00:24;;;;;;;2.15;0.40;;;;;;;;;;5041857;28;20518;-79
2022/10/31 00:02:50;;;;;;;0.40;0.30;;;;;;;;;;5042705;28;20523;-79
2022/10/31 00:05:16;;;;;;;0.45;0.25;;;;;;;;;;5025453;28;20029;-79
2022/10/31 00:07:42;;;;;;;3.13;0.50;;;;;;;;;;5024389;28;20040;-79
2022/10/31 00:10:09;;;;;;;0.63;0.30;;;;;;;;;;5012879;28;20037;-78
2022/10/31 00:12:35;;;;;;;0.55;0.20;;;;;;;;;;5041685;28;20071;-80
2022/10/31 00:15:01;;;;;;;0.60;0.30;;;;;;;;;;5029139;28;20578;-79
2022/10/31 00:17:28;;;;;;;0.63;0.30;;;;;;;;;;5029011;28;20174;-80
2022/10/31 00:19:54;;;;;;;0.47;0.20;;;;;;;;;;5028934;28;20067;-79
2022/10/31 00:22:20;;;;;;;0.30;0.20;;;;;;;;;;5024877;28;20036;-79
2022/10/31 00:24:46;;;;;;;0.45;0.20;;;;;;;;;;5009338;28;20029;-77
2022/10/31 00:27:12;;;;;;;1.25;0.30;;;;;;;;;;5041983;28;20448;-79
2022/10/31 00:29:39;;;;;;;0.43;0.30;;;;;;;;;;5042918;28;20500;-80
2022/10/31 00:32:05;;;;;;;0.15;0.15;;;;;;;;;;5024239;28;20033;-77
2022/10/31 00:34:31;;;;;;;0.82;0.20;;;;;;;;;;5008238;28;20037;-77
2022/10/31 00:36:59;;;;;;;0.45;0.30;;;;;;;;;;5039796;28;20589;-76
2022/10/31 00:39:25;;;;;;;0.38;0.20;;;;;;;;;;5019864;28;20049;-75
2022/10/31 00:41:52;;;;;;;1.55;0.30;;;;;;;;;;5041162;28;20048;-76
2022/10/31 00:44:18;;;;;;;1.23;0.40;;;;;;;;;;5006397;28;20466;-76
2022/10/31 00:46:44;;;;;;;0.77;0.40;;;;;;;;;;5041743;28;20042;-76
2022/10/31 00:49:12;;;;;;;0.30;0.30;;;;;;;;;;5040642;28;20033;-76
2022/10/31 00:51:38;;;;;;;0.60;0.25;;;;;;;;;;5040641;28;20029;-76
2022/10/31 00:54:05;;;;;;;0.60;0.22;;;;;;;;;;5040276;28;20082;-77
2022/10/31 00:56:31;;;;;;;0.47;0.28;;;;;;;;;;5004997;28;20421;-77
2022/10/31 00:58:58;;;;;;;1.13;0.20;;;;;;;;;;5023562;28;20512;-77
2022/10/31 01:01:24;;;;;;;0.77;0.20;;;;;;;;;;5008310;28;20416;-78
2022/10/31 01:03:51;;;;;;;0.60;0.40;;;;;;;;;;5025618;28;20508;-78
2022/10/31 01:06:17;;;;;;;0.28;0.20;;;;;;;;;;5008671;28;20531;-79
2022/10/31 01:08:43;;;;;;;0.85;0.20;;;;;;;;;;5025347;28;20048;-78
2022/10/31 01:11:17;;;;;;;1.50;0.30;;;;;;;;;;5027285;28;20085;-79
2022/10/31 01:13:44;;;;;;;1.45;0.52;;;;;;;;;;5043272;28;20542;-78
2022/10/31 01:16:15;;;;;;;0.93;0.30;;;;;;;;;;4993179;28;20141;-78
2022/10/31 01:18:41;;;;;;;0.25;0.20;;;;;;;;;;5026595;28;20025;-78
2022/10/31 01:21:13;;;;;;;1.00;0.50;;;;;;;;;;5011046;28;20056;-79
2022/10/31 01:23:39;;;;;;;0.20;0.20;;;;;;;;;;5044888;28;20081;-77
2022/10/31 01:26:16;;;;;;;0.60;0.35;;;;;;;;;;5026337;28;20033;-78
2022/10/31 01:28:50;;;;;;;0.75;0.30;;;;;;;;;;5013930;28;20045;-78
2022/10/31 01:31:17;;;;;;;0.30;0.20;;;;;;;;;;5042623;28;20071;-78
2022/10/31 01:33:43;;;;;;;0.43;0.30;;;;;;;;;;5029572;28;20045;-78
2022/10/31 01:36:13;;;;;;;0.52;0.15;;;;;;;;;;5027224;28;20037;-78
2022/10/31 01:38:39;;;;;;;1.92;0.40;;;;;;;;;;4996738;28;20036;-78
2022/10/31 01:41:05;;;;;;;0.38;0.10;;;;;;;;;;5024638;28;20496;-79
2022/10/31 01:43:44;;;;;;;0.52;0.10;;;;;;;;;;5025642;28;20048;-78
2022/10/31 01:46:11;;;;;;;0.43;0.20;;;;;;;;;;5008934;28;20120;-77
2022/10/31 01:48:37;;;;;;;1.13;0.40;;;;;;;;;;5043071;28;20056;-77
2022/10/31 01:51:05;;;;;;;0.32;0.30;;;;;;;;;;5028945;28;20423;-77
2022/10/31 01:53:32;;;;;;;0.47;0.20;;;;;;;;;;5043636;28;20463;-77
2022/10/31 01:55:59;;;;;;;0.35;0.10;;;;;;;;;;5045345;28;20041;-78
2022/10/31 01:58:28;;;;;;;1.48;0.20;;;;;;;;;;5023889;28;20755;-78
2022/10/31 02:00:57;;;;;;;0.40;0.20;;;;;;;;;;5008846;28;20029;-78
2022/10/31 02:03:24;;;;;;;0.98;0.47;;;;;;;;;;5042311;28;20634;-78
2022/10/31 02:05:51;;;;;;;0.85;0.30;;;;;;;;;;5029650;28;20060;-79
2022/10/31 02:08:24;;;;;;;0.98;0.30;;;;;;;;;;5009909;28;20040;-79
2022/10/31 02:10:50;;;;;;;0.43;0.30;;;;;;;;;;5026001;28;20512;-79
2022/10/31 02:13:17;;;;;;;0.65;0.20;;;;;;;;;;5011366;28;20033;-79
2022/10/31 02:15:48;;;;;;;0.85;0.30;;;;;;;;;;5025743;28;20044;-78
2022/10/31 02:18:15;;;;;;;0.30;0.25;;;;;;;;;;5013435;28;20033;-78
2022/10/31 02:20:48;;;;;;;0.80;0.30;;;;;;;;;;5024072;28;20044;-78
2022/10/31 02:23:24;;;;;;;1.23;0.30;;;;;;;;;;5045657;28;20554;-78
2022/10/31 02:26:03;;;;;;;0.65;0.20;;;;;;;;;;5008796;28;20082;-78
2022/10/31 02:28:48;;;;;;;0.80;0.30;;;;;;;;;;5007257;28;20047;-78
2022/10/31 02:31:16;;;;;;;0.85;0.20;;;;;;;;;;4996204;28;20044;-78
2022/10/31 02:33:53;;;;;;;0.20;0.20;;;;;;;;;;5030094;28;20325;-77
2022/10/31 02:36:27;;;;;;;1.55;0.30;;;;;;;;;;5028695;28;20124;-77
2022/10/31 02:39:14;;;;;;;0.25;0.10;;;;;;;;;;5024317;28;20124;-78
2022/10/31 02:41:48;;;;;;;1.58;0.30;;;;;;;;;;5023864;28;20553;-77
2022/10/31 02:44:21;;;;;;;0.30;0.15;;;;;;;;;;5012278;28;20037;-77
2022/10/31 02:46:59;;;;;;;1.50;0.20;;;;;;;;;;5022826;28;20119;-78
2022/10/31 02:49:41;;;;;;;1.08;0.30;;;;;;;;;;5012517;28;20029;-77
2022/10/31 02:52:18;;;;;;;1.30;0.20;;;;;;;;;;5028026;28;20041;-76
2022/10/31 02:54:45;;;;;;;0.60;0.35;;;;;;;;;;5023796;28;20835;-77
2022/10/31 02:57:12;;;;;;;0.80;0.30;;;;;;;;;;5025078;28;20056;-78
2022/10/31 02:59:40;;;;;;;0.80;0.20;;;;;;;;;;5024250;28;20029;-78
2022/10/31 03:02:32;;;;;;;0.40;0.20;;;;;;;;;;5011043;28;21269;-78
2022/10/31 03:04:59;;;;;;;0.20;0.20;;;;;;;;;;4954274;28;20492;-78
2022/10/31 03:07:44;;;;;;;0.28;0.28;;;;;;;;;;4949703;28;20134;-77
2022/10/31 03:10:29;;;;;;;0.65;0.30;;;;;;;;;;4970003;28;20062;-76
2022/10/31 03:13:00;;;;;;;0.97;0.20;;;;;;;;;;4953246;28;20161;-76
2022/10/31 03:15:35;;;;;;;0.45;0.20;;;;;;;;;;4952236;28;20521;-76
2022/10/31 03:18:08;;;;;;;0.90;0.45;;;;;;;;;;4969688;28;20461;-77
2022/10/31 03:20:38;;;;;;;0.28;0.25;;;;;;;;;;4969921;28;20046;-77
2022/10/31 03:23:06;;;;;;;0.50;0.43;;;;;;;;;;4952295;28;20157;-77
2022/10/31 03:25:33;;;;;;;0.65;0.30;;;;;;;;;;4936806;28;20085;-77
2022/10/31 03:28:00;;;;;;;0.32;0.30;;;;;;;;;;4952751;28;20047;-77
2022/10/31 03:30:28;;;;;;;0.40;0.20;;;;;;;;;;4933982;28;20452;-77
2022/10/31 03:32:58;;;;;;;1.33;0.40;;;;;;;;;;4953662;28;20603;-77
2022/10/31 03:35:25;;;;;;;4.07;0.40;;;;;;;;;;4966600;28;20548;-77
2022/10/31 03:37:53;;;;;;;0.20;0.20;;;;;;;;;;4949217;28;20391;-77
2022/10/31 03:40:20;;;;;;;0.40;0.30;;;;;;;;;;4952795;28;20096;-77
2022/10/31 03:42:55;;;;;;;1.27;0.32;;;;;;;;;;5035137;28;20037;-77
2022/10/31 03:45:24;;;;;;;0.20;0.15;;;;;;;;;;5011458;28;20040;-76
2022/10/31 03:47:51;;;;;;;0.80;0.63;;;;;;;;;;5006321;28;20030;-77
2022/10/31 03:50:18;;;;;;;1.02;0.32;;;;;;;;;;5023572;28;20458;-76
2022/10/31 03:52:50;;;;;;;0.93;0.43;;;;;;;;;;5021525;28;20144;-78
2022/10/31 03:55:18;;;;;;;0.30;0.30;;;;;;;;;;5009897;28;20040;-79
2022/10/31 03:57:53;;;;;;;0.50;0.50;;;;;;;;;;5007953;28;20409;-79
2022/10/31 04:00:20;;;;;;;0.57;0.38;;;;;;;;;;5010879;28;20455;-78
2022/10/31 04:03:06;;;;;;;0.30;0.30;;;;;;;;;;5021775;28;20025;-77
2022/10/31 04:05:35;;;;;;;0.38;0.38;;;;;;;;;;5023636;28;20555;-78
2022/10/31 04:08:04;;;;;;;1.20;0.40;;;;;;;;;;5023548;28;20040;-77
2022/10/31 04:10:32;;;;;;;1.27;0.40;;;;;;;;;;5007474;28;20033;-77
2022/10/31 04:13:01;;;;;;;0.55;0.43;;;;;;;;;;5023251;28;20048;-77
2022/10/31 04:15:37;;;;;;;2.85;0.52;;;;;;;;;;5021217;28;20068;-78
2022/10/31 04:18:05;;;;;;;1.55;0.35;;;;;;;;;;5027079;28;20923;-78
2022/10/31 04:20:33;;;;;;;1.58;0.50;;;;;;;;;;5027405;28;20083;-79
2022/10/31 04:23:00;;;;;;;0.90;0.60;;;;;;;;;;5023282;28;20108;-78
2022/10/31 04:25:26;;;;;;;0.80;0.38;;;;;;;;;;5021723;28;20421;-77
2022/10/31 04:27:54;;;;;;;0.30;0.30;;;;;;;;;;5022980;28;20033;-77
2022/10/31 04:30:22;;;;;;;1.13;0.30;;;;;;;;;;5022243;28;20064;-78
2022/10/31 04:32:48;;;;;;;0.50;0.50;;;;;;;;;;5008933;28;20489;-77
2022/10/31 04:35:15;;;;;;;0.87;0.40;;;;;;;;;;5022558;28;20120;-79
2022/10/31 04:37:41;;;;;;;2.00;0.30;;;;;;;;;;5023391;28;20036;-79
2022/10/31 04:40:08;;;;;;;0.55;0.35;;;;;;;;;;5019921;28;20025;-79
2022/10/31 04:42:53;;;;;;;1.77;0.50;;;;;;;;;;5040851;28;20567;-79
2022/10/31 04:45:19;;;;;;;1.48;0.68;;;;;;;;;;5021751;28;20120;-78
2022/10/31 04:47:48;;;;;;;0.80;0.40;;;;;;;;;;5019649;28;20045;-78
2022/10/31 04:50:14;;;;;;;1.35;0.50;;;;;;;;;;5022351;28;20031;-78
2022/10/31 04:52:41;;;;;;;1.48;0.40;;;;;;;;;;5021438;28;20037;-82
2022/10/31 04:55:09;;;;;;;0.77;0.30;;;;;;;;;;5010907;28;20132;-84
2022/10/31 04:57:56;;;;;;;1.25;0.32;;;;;;;;;;5027313;28;20048;-78
2022/10/31 05:00:24;;;;;;;1.83;0.55;;;;;;;;;;5027025;28;20128;-76
2022/10/31 05:02:52;;;;;;;1.02;0.40;;;;;;;;;;5004669;28;20048;-78
2022/10/31 05:05:19;;;;;;;1.95;0.50;;;;;;;;;;5021932;28;20170;-79
2022/10/31 05:07:46;;;;;;;1.20;0.50;;;;;;;;;;5024426;28;20033;-79
2022/10/31 05:10:14;;;;;;;0.80;0.47;;;;;;;;;;5020941;28;20037;-79
2022/10/31 05:12:48;;;;;;;0.40;0.30;;;;;;;;;;5006064;28;20037;-80
2022/10/31 05:15:33;;;;;;;0.88;0.47;;;;;;;;;;5040817;28;20029;-78
2022/10/31 05:18:22;;;;;;;0.80;0.40;;;;;;;;;;5034766;28;20033;-77
2022/10/31 05:21:21;;;;;;;1.00;0.45;;;;;;;;;;4995122;28;20033;-80
2022/10/31 05:24:00;;;;;;;0.60;0.50;;;;;;;;;;5025012;28;20040;-80
2022/10/31 05:26:27;;;;;;;2.38;0.43;;;;;;;;;;5023908;28;20037;-80
2022/10/31 05:28:54;;;;;;;0.90;0.50;;;;;;;;;;5004935;28;20034;-81
2022/10/31 05:31:21;;;;;;;2.83;0.40;;;;;;;;;;5040129;28;20041;-81
2022/10/31 05:33:48;;;;;;;0.77;0.32;;;;;;;;;;5019443;28;20033;-81
2022/10/31 05:36:20;;;;;;;0.95;0.38;;;;;;;;;;5039995;28;20041;-78
2022/10/31 05:39:13;;;;;;;2.33;0.50;;;;;;;;;;5035003;28;20045;-78
2022/10/31 05:41:42;;;;;;;2.00;0.55;;;;;;;;;;5020747;28;20082;-80
2022/10/31 05:44:28;;;;;;;0.30;0.30;;;;;;;;;;5038524;28;20044;-79
2022/10/31 05:47:20;;;;;;;0.85;0.40;;;;;;;;;;5023085;28;20037;-79
2022/10/31 05:49:55;;;;;;;1.60;0.60;;;;;;;;;;5025523;28;20037;-78
2022/10/31 05:52:24;;;;;;;1.48;0.40;;;;;;;;;;5041650;28;20076;-76
2022/10/31 05:54:58;;;;;;;1.02;0.40;;;;;;;;;;5041585;28;20116;-78
2022/10/31 05:57:25;;;;;;;2.67;0.43;;;;;;;;;;5025263;28;20547;-77
2022/10/31 05:59:52;;;;;;;1.50;0.73;;;;;;;;;;5024661;28;20536;-79
2022/10/31 06:02:20;;;;;;;1.05;0.60;;;;;;;;;;5009981;28;20048;-77
2022/10/31 06:05:05;;;;;;;1.23;0.65;;;;;;;;;;5026833;28;20049;-77
2022/10/31 06:07:34;;;;;;;2.17;0.50;;;;;;;;;;5009710;28;20033;-77
2022/10/31 06:10:00;;;;;;;1.15;0.55;;;;;;;;;;5006941;28;20029;-79
2022/10/31 06:12:28;;;;;;;2.15;0.55;;;;;;;;;;4990999;28;20072;-78
2022/10/31 06:15:13;;;;;;;0.65;0.55;;;;;;;;;;5044090;28;20080;-78
2022/10/31 06:17:39;;;;;;;1.13;0.50;;;;;;;;;;5041675;28;20128;-77
2022/10/31 06:20:22;;;;;;;0.85;0.50;;;;;;;;;;5024004;28;20100;-78
2022/10/31 06:22:57;;;;;;;1.67;0.70;;;;;;;;;;5024103;28;20059;-78
2022/10/31 06:25:23;;;;;;;1.50;0.60;;;;;;;;;;5029479;28;20037;-77
2022/10/31 06:27:50;;;;;;;1.95;0.73;;;;;;;;;;5007896;28;20033;-79
2022/10/31 06:30:16;;;;;;;1.50;0.65;;;;;;;;;;5028460;28;20524;-80
2022/10/31 06:32:45;;;;;;;1.88;0.70;;;;;;;;;;5028312;28;20504;-82
2022/10/31 06:35:11;;;;;;;1.38;0.60;;;;;;;;;;5027923;28;20044;-82
2022/10/31 06:37:39;;;;;;;0.95;0.43;;;;;;;;;;5024670;28;20140;-81
2022/10/31 06:40:24;;;;;;;1.42;0.70;;;;;;;;;;5024864;28;20935;-81
2022/10/31 06:43:17;;;;;;;0.70;0.40;;;;;;;;;;5040210;28;20044;-80
2022/10/31 06:45:44;;;;;;;1.23;0.40;;;;;;;;;;5003470;28;20897;-80
2022/10/31 06:48:26;;;;;;;1.27;0.60;;;;;;;;;;5025425;28;20069;-80
2022/10/31 06:51:18;;;;;;;0.85;0.50;;;;;;;;;;5036593;28;20496;-80
2022/10/31 06:53:44;;;;;;;0.80;0.40;;;;;;;;;;5011458;28;20811;-86
2022/10/31 06:56:12;;;;;;;0.85;0.60;;;;;;;;;;5002625;28;20038;-87
2022/10/31 06:58:44;;;;;;;0.60;0.50;;;;;;;;;;5002517;28;20037;-76
2022/10/31 07:01:11;;;;;;;1.08;0.52;;;;;;;;;;5007545;28;20044;-77
2022/10/31 07:03:38;;;;;;;0.30;0.28;;;;;;;;;;5021760;28;20409;-85
2022/10/31 07:06:05;;;;;;;0.30;0.30;;;;;;;;;;5016771;28;20038;-87
2022/10/31 07:08:32;;;;;;;2.63;0.47;;;;;;;;;;5013981;28;20026;-87
2022/10/31 07:10:59;;;;;;;3.42;0.50;;;;;;;;;;5011243;28;20030;-87
2022/10/31 07:13:29;;;;;;;0.30;0.30;;;;;;;;;;5006488;28;20167;-82
2022/10/31 07:16:07;;;;;;;1.33;0.65;;;;;;;;;;5000617;28;20037;-83
2022/10/31 07:18:35;;;;;;;1.80;0.30;;;;;;;;;;5029105;28;20520;-87
2022/10/31 07:21:02;;;;;;;0.43;0.43;;;;;;;;;;5018912;28;20034;-88
2022/10/31 07:23:28;;;;;;;1.55;0.63;;;;;;;;;;5013488;28;20093;-74
2022/10/31 07:26:14;;;;;;;;;;;;;;;;;;5017888;28;20038;-83
2022/10/31 07:28:47;;;;;;;2.50;0.40;;;;;;;;;;5022081;28;20596;-79
2022/10/31 07:31:13;;;;;;;1.52;0.60;;;;;;;;;;5005886;28;20089;-87
2022/10/31 07:33:40;;;;;;;0.75;0.40;;;;;;;;;;4989862;28;20412;-87
2022/10/31 07:36:25;;;;;;;1.42;0.60;;;;;;;;;;5003398;28;20038;-84
2022/10/31 07:38:53;;;;;;;1.48;0.80;;;;;;;;;;5002144;28;20088;-84
2022/10/31 07:41:19;;;;;;;0.80;0.40;;;;;;;;;;4999246;28;20084;-81
2022/10/31 07:43:46;;;;;;;1.65;0.40;;;;;;;;;;5002303;28;20129;-84
2022/10/31 07:46:15;;;;;;;0.80;0.45;;;;;;;;;;5000391;28;20038;-84
2022/10/31 07:49:14;;;;;;;0.50;0.40;;;;;;;;;;4988812;28;20030;-84
2022/10/31 07:51:59;;;;;;;1.70;0.52;;;;;;;;;;5000615;28;20045;-84
2022/10/31 07:54:25;;;;;;;0.90;0.50;;;;;;;;;;5037642;28;20508;-80
2022/10/31 07:56:51;;;;;;;0.52;0.43;;;;;;;;;;5026462;28;20056;-79
2022/10/31 07:59:17;;;;;;;2.40;0.55;;;;;;;;;;5029785;28;20039;-81
2022/10/31 08:01:44;;;;;;;0.57;0.40;;;;;;;;;;5016381;28;20074;-80
2022/10/31 08:04:39;;;;;;;0.80;0.80;;;;;;;;;;5021102;28;20619;-80
2022/10/31 08:07:24;;;;;;;0.75;0.50;;;;;;;;;;5016023;28;20034;-80
2022/10/31 08:09:58;;;;;;;1.43;0.67;;;;;;;;;;5023493;28;20045;-80
2022/10/31 08:12:29;;;;;;;0.50;0.40;;;;;;;;;;5017499;28;20424;-80
2022/10/31 08:14:55;;;;;;;4.05;0.60;;;;;;;;;;5031835;28;20039;-81
2022/10/31 08:17:22;;;;;;;0.82;0.50;;;;;;;;;;5033306;28;20041;-83
2022/10/31 08:20:08;;;;;;;1.05;0.40;;;;;;;;;;5050536;28;20047;-83
2022/10/31 08:22:42;;;;;;;2.28;0.40;;;;;;;;;;5031780;28;20055;-82
2022/10/31 08:25:09;;;;;;;0.90;0.50;;;;;;;;;;5031126;28;20116;-80
2022/10/31 08:27:36;;;;;;;1.42;0.47;;;;;;;;;;5000209;28;20120;-82
2022/10/31 08:30:02;;;;;;;0.50;0.40;;;;;;;;;;5032460;28;20040;-81
2022/10/31 08:32:29;;;;;;;0.28;0.28;;;;;;;;;;5033412;28;20551;-80
2022/10/31 08:35:14;;;;;;;0.40;0.40;;;;;;;;;;5035325;28;20124;-83
2022/10/31 08:38:00;;;;;;;0.50;0.50;;;;;;;;;;5035816;28;20140;-92
2022/10/31 08:40:28;;;;;;;0.95;0.30;;;;;;;;;;5016622;28;20079;-84
2022/10/31 08:43:01;;;;;;;0.73;0.40;;;;;;;;;;5022641;28;20068;-87
2022/10/31 08:45:28;;;;;;;0.38;0.30;;;;;;;;;;5022108;28;20043;-85
2022/10/31 08:47:58;;;;;;;0.85;0.43;;;;;;;;;;5010312;28;20029;-85
2022/10/31 08:50:25;;;;;;;2.20;0.55;;;;;;;;;;5022187;28;20071;-87
2022/10/31 08:52:52;;;;;;;0.30;0.30;;;;;;;;;;4993489;28;20063;-87
2022/10/31 08:55:18;;;;;;;0.50;0.40;;;;;;;;;;5020905;28;20086;-87
2022/10/31 08:58:15;;;;;;;0.45;0.45;;;;;;;;;;5027435;28;20045;-89
2022/10/31 09:00:48;;;;;;;0.75;0.60;;;;;;;;;;5023064;28;20040;-90
2022/10/31 09:03:24;;;;;;;4.65;0.60;;;;;;;;;;5011932;28;20413;-87
2022/10/31 09:05:51;;;;;;;0.40;0.30;;;;;;;;;;5022206;28;20025;-88
2022/10/31 09:08:17;;;;;;;1.20;0.50;;;;;;;;;;5021975;28;20029;-91
2022/10/31 09:10:46;;;;;;;1.25;0.50;;;;;;;;;;5023505;28;20029;-85
2022/10/31 09:13:17;;;;;;;3.20;0.50;;;;;;;;;;5008262;28;20033;-87
2022/10/31 09:16:02;;;;;;;0.50;0.50;;;;;;;;;;5041216;28;20059;-87
2022/10/31 09:18:31;;;;;;;1.63;0.75;;;;;;;;;;5023787;28;20038;-93
2022/10/31 09:20:59;;;;;;;2.17;0.68;;;;;;;;;;5039961;28;20026;-92
2022/10/31 09:23:27;;;;;;;2.78;0.65;;;;;;;;;;5026727;28;20032;-91
2022/10/31 09:25:53;;;;;;;2.67;0.70;;;;;;;;;;5012109;28;20043;-89
2022/10/31 09:28:41;;;;;;;0.75;0.45;;;;;;;;;;5029431;28;20068;-87
2022/10/31 09:31:10;;;;;;;1.50;0.40;;;;;;;;;;5029131;28;20044;-90
2022/10/31 09:34:03;;;;;;;1.70;0.60;;;;;;;;;;5039576;28;20044;-80
2022/10/31 09:36:35;;;;;;;1.25;0.60;;;;;;;;;;5042519;28;20052;-83
2022/10/31 09:39:04;;;;;;;2.95;0.57;;;;;;;;;;5023383;28;20061;-84
2022/10/31 09:41:32;;;;;;;1.85;0.60;;;;;;;;;;5011657;28;20041;-85
2022/10/31 09:44:07;;;;;;;1.80;0.82;;;;;;;;;;5029598;28;20128;-91
2022/10/31 09:46:37;;;;;;;0.82;0.70;;;;;;;;;;5013925;28;20029;-87
2022/10/31 09:49:09;;;;;;;1.35;0.60;;;;;;;;;;5042883;28;20033;-82
2022/10/31 09:51:54;;;;;;;2.63;0.82;;;;;;;;;;5033268;28;20029;-84
2022/10/31 09:54:32;;;;;;;0.95;0.68;;;;;;;;;;5037557;28;20041;-83
2022/10/31 09:57:02;;;;;;;2.67;0.63;;;;;;;;;;5012520;28;20039;-84
2022/10/31 09:59:42;;;;;;;2.28;0.80;;;;;;;;;;5043705;28;20076;-81
2022/10/31 10:02:10;;;;;;;1.08;0.70;;;;;;;;;;5012451;28;20030;-84
2022/10/31 10:04:43;;;;;;;1.00;0.60;;;;;;;;;;5023712;28;20083;-87
2022/10/31 10:07:35;;;;;;;0.85;0.70;;;;;;;;;;5026578;28;20068;-77
2022/10/31 10:10:39;;;;;;;0.98;0.70;;;;;;;;;;5002874;28;20040;-78
2022/10/31 10:13:41;;;;;;;1.17;0.57;;;;;;;;;;5032813;28;20041;-77
2022/10/31 10:16:17;;;;;;;0.45;0.40;;;;;;;;;;5025716;28;20040;-78
2022/10/31 10:18:58;;;;;;;1.02;0.65;;;;;;;;;;5041707;28;20030;-81
2022/10/31 10:21:27;;;;;;;0.82;0.47;;;;;;;;;;5043710;28;20508;-78
2022/10/31 10:24:09;;;;;;;0.98;0.40;;;;;;;;;;5044824;28;20040;-78
2022/10/31 10:26:40;;;;;;;1.40;0.50;;;;;;;;;;5041869;28;20087;-77
2022/10/31 10:29:26;;;;;;;0.95;0.50;;;;;;;;;;5028940;28;20068;-78
2022/10/31 10:31:52;;;;;;;0.40;0.40;;;;;;;;;;5027766;28;20125;-78
2022/10/31 10:34:21;;;;;;;0.63;0.40;;;;;;;;;;5041015;28;20496;-78
2022/10/31 10:36:50;;;;;;;1.90;0.45;;;;;;;;;;5024237;28;20420;-76
2022/10/31 10:39:26;;;;;;;3.97;0.68;;;;;;;;;;5041862;28;20033;-76
2022/10/31 10:47:42;;;;;;;0.52;0.43;;;;;;;;;;5042382;28;20045;-78
2022/10/31 10:50:16;;;;;;;0.50;0.43;;;;;;;;;;5041999;28;20124;-78
2022/10/31 10:52:48;;;;;;;0.68;0.55;;;;;;;;;;5007037;28;20387;-78
2022/10/31 10:55:17;;;;;;;3.97;0.50;;;;;;;;;;5043121;28;20579;-78
2022/10/31 10:57:47;;;;;;;0.32;0.30;;;;;;;;;;5041414;28;20480;-78
2022/10/31 11:00:17;;;;;;;2.55;0.65;;;;;;;;;;5024989;28;20550;-78
2022/10/31 11:02:43;;;;;;;1.45;0.30;;;;;;;;;;5041007;28;20041;-77
2022/10/31 11:05:15;;;;;;;2.88;0.50;;;;;;;;;;5012183;28;20190;-76
2022/10/31 11:07:42;;;;;;;1.55;0.43;;;;;;;;;;5041846;28;20500;-76
2022/10/31 11:10:16;;;;;;;0.70;0.20;;;;;;;;;;5026496;28;20041;-77
2022/10/31 11:12:43;;;;;;;0.47;0.30;;;;;;;;;;5027460;28;20530;-77
2022/10/31 11:15:21;;;;;;;1.25;0.40;;;;;;;;;;5043142;28;20034;-77
2022/10/31 11:17:51;;;;;;;0.98;0.35;;;;;;;;;;5023886;28;20056;-78
2022/10/31 11:20:25;;;;;;;0.75;0.35;;;;;;;;;;5026558;28;20031;-77
2022/10/31 11:23:01;;;;;;;1.95;0.30;;;;;;;;;;5024458;28;20040;-77
2022/10/31 11:25:27;;;;;;;0.47;0.20;;;;;;;;;;5021775;28;20377;-77
2022/10/31 11:28:00;;;;;;;0.55;0.28;;;;;;;;;;5041441;28;20044;-77
2022/10/31 11:30:27;;;;;;;0.93;0.40;;;;;;;;;;5042488;28;20037;-77
2022/10/31 11:32:53;;;;;;;0.38;0.28;;;;;;;;;;5042409;28;21806;-77
2022/10/31 11:35:21;;;;;;;0.77;0.40;;;;;;;;;;5042865;28;20124;-77
2022/10/31 11:37:49;;;;;;;1.95;0.50;;;;;;;;;;5012026;28;20037;-77
2022/10/31 11:40:16;;;;;;;1.05;0.28;;;;;;;;;;5024799;28;20289;-77
2022/10/31 11:42:43;;;;;;;1.75;0.32;;;;;;;;;;5040579;28;20029;-77
2022/10/31 11:45:17;;;;;;;1.02;0.50;;;;;;;;;;5039404;28;20044;-78
2022/10/31 11:47:46;;;;;;;0.57;0.20;;;;;;;;;;5041200;28;20036;-78
2022/10/31 11:50:19;;;;;;;2.13;0.50;;;;;;;;;;5023048;28;20032;-78
2022/10/31 11:52:45;;;;;;;2.03;0.40;;;;;;;;;;5026336;28;20053;-78
2022/10/31 11:55:35;;;;;;;1.58;0.40;;;;;;;;;;5023897;28;20269;-77
2022/10/31 11:58:01;;;;;;;0.55;0.40;;;;;;;;;;5000011;28;20045;-76
2022/10/31 12:00:29;;;;;;;0.55;0.40;;;;;;;;;;5040683;28;20040;-77
2022/10/31 12:03:11;;;;;;;0.57;0.20;;;;;;;;;;5040840;28;20551;-76
2022/10/31 12:05:38;;;;;;;1.77;0.40;;;;;;;;;;5042714;28;20036;-79
2022/10/31 12:08:05;;;;;;;0.25;0.25;;;;;;;;;;5046827;28;20096;-80
2022/10/31 12:10:35;;;;;;;0.82;0.55;;;;;;;;;;5031983;28;20025;-78
2022/10/31 12:13:20;;;;;;;1.58;0.60;;;;;;;;;;5051037;28;20064;-79
2022/10/31 12:15:51;;;;;;;0.93;0.40;;;;;;;;;;5050690;28;20043;-79
2022/10/31 12:18:36;;;;;;;0.82;0.50;;;;;;;;;;5030778;28;20570;-80
2022/10/31 12:21:21;;;;;;;0.70;0.20;;;;;;;;;;5033090;28;20033;-78
2022/10/31 12:23:53;;;;;;;0.60;0.30;;;;;;;;;;5050745;28;20086;-79
2022/10/31 12:26:39;;;;;;;3.55;0.20;;;;;;;;;;5051171;28;20064;-77
2022/10/31 12:29:05;;;;;;;1.70;0.50;;;;;;;;;;5047236;28;20590;-80
2022/10/31 12:31:55;;;;;;;2.47;0.40;;;;;;;;;;5013227;28;20041;-78
2022/10/31 12:34:27;;;;;;;0.90;0.25;;;;;;;;;;5035427;28;20033;-77
2022/10/31 12:37:01;;;;;;;0.82;0.30;;;;;;;;;;5050688;28;20049;-78
2022/10/31 12:39:30;;;;;;;0.65;0.28;;;;;;;;;;5047832;28;20585;-76
2022/10/31 12:42:02;;;;;;;0.82;0.30;;;;;;;;;;5050596;28;20037;-77
2022/10/31 12:44:34;;;;;;;1.33;0.40;;;;;;;;;;5051121;28;20103;-79
2022/10/31 12:47:01;;;;;;;1.30;0.43;;;;;;;;;;5032766;28;20032;-79
2022/10/31 12:49:34;;;;;;;1.33;0.32;;;;;;;;;;5047684;28;20522;-77
2022/10/31 12:52:16;;;;;;;0.28;0.28;;;;;;;;;;5049318;28;20037;-78
2022/10/31 12:54:52;;;;;;;0.63;0.30;;;;;;;;;;5010779;28;20128;-78
2022/10/31 12:57:28;;;;;;;0.20;0.20;;;;;;;;;;5018017;28;20041;-77
2022/10/31 12:59:58;;;;;;;0.35;0.35;;;;;;;;;;5013973;28;20049;-78
2022/10/31 13:02:32;;;;;;;0.73;0.40;;;;;;;;;;5017752;28;20030;-77
2022/10/31 13:05:02;;;;;;;0.70;0.40;;;;;;;;;;5013358;28;20116;-77
2022/10/31 13:07:29;;;;;;;0.57;0.20;;;;;;;;;;5007074;28;20513;-78
2022/10/31 13:09:59;;;;;;;0.65;0.40;;;;;;;;;;5006249;28;20041;-77
2022/10/31 13:12:26;;;;;;;0.70;0.30;;;;;;;;;;5005527;28;20459;-77
2022/10/31 13:14:54;;;;;;;2.78;0.73;;;;;;;;;;4987836;28;20034;-78
2022/10/31 13:17:56;;;;;;;1.10;0.22;;;;;;;;;;4993634;28;20045;-79
2022/10/31 13:20:22;;;;;;;2.60;0.30;;;;;;;;;;4950145;28;20054;-77
2022/10/31 13:23:12;;;;;;;5.15;0.65;;;;;;;;;;4948506;28;20043;-78
2022/10/31 13:25:45;;;;;;;5.07;0.40;;;;;;;;;;4868236;29;20045;-77
2022/10/31 13:28:35;;;;;;;2.25;0.40;;;;;;;;;;4875699;29;20033;-78
2022/10/31 13:31:01;;;;;;;11.20;0.90;;;;;;;;;;4875604;29;20043;-77
2022/10/31 13:33:31;;;;;;;8.35;0.85;;;;;;;;;;4875646;29;20060;-91
2022/10/31 13:36:16;;;;;;;5.15;1.05;;;;;;;;;;4859570;29;20095;-75
2022/10/31 13:38:42;;;;;;;8.55;0.90;;;;;;;;;;4874856;29;20044;-74
2022/10/31 13:41:23;;;;;;;1.65;0.40;;;;;;;;;;4875409;29;20056;-76
2022/10/31 13:44:02;;;;;;;8.63;0.80;;;;;;;;;;4867376;29;20044;-76
2022/10/31 13:46:39;;;;;;;3.20;0.40;;;;;;;;;;4875198;29;20037;-76
2022/10/31 13:49:23;;;;;;;6.78;1.15;;;;;;;;;;4875259;29;20064;-79
2022/10/31 13:51:52;;;;;;;3.95;0.65;;;;;;;;;;4859456;29;20097;-77
2022/10/31 13:54:33;;;;;;;2.95;0.82;;;;;;;;;;4882611;29;20055;-78
2022/10/31 13:56:59;;;;;;;2.08;0.43;;;;;;;;;;4910854;29;20095;-79
2022/10/31 13:59:30;;;;;;;4.50;0.63;;;;;;;;;;4926387;29;20037;-78
2022/10/31 14:02:01;;;;;;;3.35;0.50;;;;;;;;;;4946775;28;20656;-78
2022/10/31 14:04:38;;;;;;;1.55;0.70;;;;;;;;;;5028654;28;20501;-77
2022/10/31 14:07:14;;;;;;;3.33;0.73;;;;;;;;;;5022391;28;20030;-78
2022/10/31 14:10:01;;;;;;;3.10;0.52;;;;;;;;;;5026556;28;20056;-78
2022/10/31 14:12:27;;;;;;;2.83;0.77;;;;;;;;;;5022787;28;20034;-80
2022/10/31 14:14:55;;;;;;;2.58;0.85;;;;;;;;;;5023332;28;20045;-81
2022/10/31 14:17:23;;;;;;;4.78;0.60;;;;;;;;;;5021669;28;20708;-77
2022/10/31 14:20:19;;;;;;;2.00;0.60;;;;;;;;;;5025782;28;20517;-80
2022/10/31 14:22:46;;;;;;;;;;;;;;;;;;4995726;28;20033;-79
2022/10/31 14:25:12;;;;;;;;;;;;;;;;;;5026138;28;20387;-83
2022/10/31 14:27:38;;;;;;;;;;;;;;;;;;5021898;28;19917;-81
2022/10/31 14:30:04;;;;;;;;;;;;;;;;;;5023073;28;19964;-79
2022/10/31 14:32:30;;;;;;;2.55;0.50;;;;;;;;;;5022269;28;19921;-82
2022/10/31 14:34:57;;;;;;;4.63;0.52;;;;;;;;;;5022663;28;20034;-80
2022/10/31 14:37:29;;;;;;;0.82;0.30;;;;;;;;;;5023026;28;20065;-79
2022/10/31 14:40:14;;;;;;;0.90;0.20;;;;;;;;;;5021559;28;20037;-78
2022/10/31 14:42:55;;;;;;;3.05;0.50;;;;;;;;;;5025298;28;20038;-76
2022/10/31 14:45:28;;;;;;;0.95;0.73;;;;;;;;;;5021332;28;20463;-75
2022/10/31 14:47:54;;;;;;;2.58;0.60;;;;;;;;;;5019560;28;20034;-76
2022/10/31 14:50:39;;;;;;;1.90;0.40;;;;;;;;;;5022161;28;20216;-76
2022/10/31 14:53:07;;;;;;;0.40;0.40;;;;;;;;;;5029113;28;20147;-76
2022/10/31 14:55:33;;;;;;;2.08;0.40;;;;;;;;;;5041877;28;20029;-76
2022/10/31 14:58:05;;;;;;;3.75;0.75;;;;;;;;;;5041244;28;20588;-77
2022/10/31 15:00:32;;;;;;;2.05;0.40;;;;;;;;;;5042020;28;20038;-77
2022/10/31 15:03:01;;;;;;;7.43;0.85;;;;;;;;;;5042406;28;20478;-76
2022/10/31 15:05:28;;;;;;;1.38;0.40;;;;;;;;;;5011084;28;20034;-77
2022/10/31 15:07:56;;;;;;;2.00;0.52;;;;;;;;;;5040724;28;20558;-76
2022/10/31 15:10:25;;;;;;;1.30;0.70;;;;;;;;;;5041060;28;20893;-75
2022/10/31 15:12:51;;;;;;;0.70;0.50;;;;;;;;;;5040565;28;20049;-80
2022/10/31 15:15:22;;;;;;;0.95;0.40;;;;;;;;;;5024284;28;20099;-82
2022/10/31 15:17:50;;;;;;;4.43;0.38;;;;;;;;;;4995345;28;20036;-80
2022/10/31 15:20:20;;;;;;;2.17;0.40;;;;;;;;;;5042445;28;20113;-79